Peerless, MT (59253)

4:38 PM MDT on April 01, 2015 (GMT -0600)
NonFedAWOS | | Change Station
CLOSE
Current Station
Personal Weather Station
Location: Scobey, MT
Elevation: 2432 ft
Nearby Weather Stations
Active Advisory: Fire Weather Warning

Elev 2432 ft 48.81 °N, 105.44 °W | Updated 43 minutes ago

Partly Cloudy
Partly Cloudy
52 °F
Feels Like 52 °F
N
29
Wind Variable Wind from WSW
Gusts 38.0 mph

Today
High -- | Low -- °F
--% Chance of Precip.
Yesterday
High -- | Low -- °F
Precip. -- in
6:41 AM 7:33 PM
Waxing Gibbous, 94% visible
Pressure 29.73 in
Visibility 10.0 miles
Clouds Scattered Clouds 5500 ft
Dew Point 23 °F
Humidity 32%
Rainfall in
Snow Depth Not available.
UV 3 out of 12
Pollen 6.50 out of 12
Air Quality Not available.
Flu Activity Not available.
METAR KOLF 012153Z AUTO 28023G32KT 10SM SCT055 12/M02 A2972 RMK AO2 PK WND 28033/2104 SLP066 T01221022

More Conditions Fewer Conditions

Pressure 29.73 in
Visibility 10.0 miles
Clouds Scattered Clouds 5500 ft
Dew Point 23 °F
Humidity 32%
Rainfall in
Snow Depth Not available.
UV 3 out of 12
Pollen 6.50 out of 12
Air Quality Not available.
Flu Activity Not available.
METAR KOLF 012153Z AUTO 28023G32KT 10SM SCT055 12/M02 A2972 RMK AO2 PK WND 28033/2104 SLP066 T01221022

More Conditions Fewer Conditions

10-Day Weather Forecast

Almanac

Astronomy

Apr. 01, 2015 Rise Set
Actual Time
Civil Twilight
Nautical Twilight
Astronomical Twilight
Moon
Length of Visible Light
Length of Day
Tomorrow will be .
, % of the Moon is Illuminated

Today's Extremes

State Highs State Lows

Community

WunderPhotos

Upload Photos

1,810,096 photos uploaded!

WunderBlogs® & News

Nearby

Air Quality

  Air Quality AQ Index Pollutant
Not available.

Snow Depth

Station Depth Elevation

Earthquake Activity

City Distance Mag. Time & Date
Minimum magnitude displayed is 2.5.

Coastal Water Temperatures

Place Temperature

Stations

Nearby Weather Stations

Station Location Temp. Windchill Dew Point Humidity Wind Precip. Elev Updated Type
                   
Fire Weather Warning
Statement as of 2:32 PM MDT on April 01, 2015

... Red flag warning remains in effect until 9 PM MDT this evening
for wind and low relative humidity for fire weather zones 120...
122... 134... 135... 136 and 137...

A red flag warning remains in effect until 9 PM MDT this evening.

* Affected area... fire weather zones 120... 122... 134... 135...
136 and 137.

* Winds... west 25 to 35 mph with gusts up to 50 mph.

* Relative humidity... as low as 18 percent.

* Impacts... the combination of dry fuels... strong winds... and
low relative humidity can contribute to extreme fire behavior.

Precautionary/preparedness actions...

Please advise the appropriate officials or fire crews in these
areas of this red flag warning.



Http://weather.Gov/Glasgow